createdAt,value
2019-05-12T00:00:20.198Z,98118.87
2019-05-12T00:02:48.801Z,98125.76
2019-05-12T00:05:18.441Z,98112.32
2019-05-12T00:07:48.848Z,98119.23
2019-05-12T00:10:18.041Z,98121.78
2019-05-12T00:12:48.408Z,98130.17
2019-05-12T00:15:19.106Z,98128.53
2019-05-12T00:17:48.536Z,98132.35
2019-05-12T00:20:18.058Z,98131.34
2019-05-12T00:22:49.166Z,98136.93
2019-05-12T00:25:18.557Z,98130.21
2019-05-12T00:27:48.582Z,98130.88
2019-05-12T00:30:38.891Z,98130.80
2019-05-12T00:33:09.401Z,98135.89
2019-05-12T00:35:38.301Z,98138.23
2019-05-12T00:38:09.115Z,98133.73
2019-05-12T00:40:39.232Z,98129.64
2019-05-12T00:43:08.737Z,98138.09
2019-05-12T00:45:38.747Z,98140.10
2019-05-12T00:48:09.147Z,98142.52
2019-05-12T00:50:38.429Z,98137.94
2019-05-12T00:53:08.940Z,98137.66
2019-05-12T00:55:38.030Z,98136.55
2019-05-12T00:58:08.223Z,98150.27
2019-05-12T01:00:40.639Z,98141.12
2019-05-12T01:03:08.656Z,98133.48
2019-05-12T01:05:38.408Z,98141.08
2019-05-12T01:08:08.857Z,98136.97
2019-05-12T01:10:39.042Z,98138.02
2019-05-12T01:13:08.625Z,98134.41
2019-05-12T01:15:37.901Z,98132.30
2019-05-12T01:18:09.348Z,98135.95
2019-05-12T01:20:38.873Z,98132.42
2019-05-12T01:23:08.617Z,98137.16
2019-05-12T01:25:39.498Z,98142.90
2019-05-12T01:28:08.475Z,98130.55
2019-05-12T01:30:39.171Z,98133.46
2019-05-12T01:33:08.551Z,98125.23
2019-05-12T01:35:38.696Z,98128.69
2019-05-12T01:38:08.112Z,98126.81
2019-05-12T01:40:39.562Z,98146.17
2019-05-12T01:43:08.648Z,98152.95
2019-05-12T01:45:38.112Z,98163.85
2019-05-12T01:48:08.666Z,98169.52
2019-05-12T01:50:38.548Z,98182.57
2019-05-12T01:53:08.391Z,98186.16
2019-05-12T01:55:38.701Z,98191.44
2019-05-12T01:58:08.290Z,98182.59
2019-05-12T02:00:38.827Z,98185.27
2019-05-12T02:03:09.076Z,98190.98
2019-05-12T02:05:39.590Z,98192.08
2019-05-12T02:08:09.890Z,98194.70
2019-05-12T02:10:38.906Z,98189.70
2019-05-12T02:13:08.024Z,98191.25
2019-05-12T02:15:38.375Z,98187.80
2019-05-12T02:18:09.168Z,98191.93
2019-05-12T02:20:38.169Z,98199.33
2019-05-12T02:23:09.058Z,98194.97
2019-05-12T02:25:38.061Z,98193.76
2019-05-12T02:28:09.242Z,98198.25
2019-05-12T02:30:40.714Z,98199.39
2019-05-12T02:33:07.343Z,98213.84
2019-05-12T02:35:35.951Z,98216.64
2019-05-12T02:38:05.420Z,98215.61
2019-05-12T02:40:34.867Z,98215.80
2019-05-12T02:43:05.425Z,98213.62
2019-05-12T02:45:35.569Z,98216.09
2019-05-12T02:48:05.894Z,98211.16
2019-05-12T02:50:37.682Z,98211.63
2019-05-12T02:53:07.271Z,98215.70
2019-05-12T02:55:36.432Z,98216.97
2019-05-12T02:58:06.238Z,98225.31
2019-05-12T03:00:36.714Z,98224.71
2019-05-12T03:03:08.515Z,98231.80
2019-05-12T03:05:38.690Z,98227.74
2019-05-12T03:08:07.241Z,98226.67
2019-05-12T03:10:36.814Z,98236.56
2019-05-12T03:13:05.558Z,98233.89
2019-05-12T03:15:36.748Z,98241.50
2019-05-12T03:18:06.176Z,98232.89
2019-05-12T03:20:35.905Z,98240.37
2019-05-12T03:23:06.224Z,98243.16
2019-05-12T03:25:36.394Z,98235.35
2019-05-12T03:28:08.681Z,98239.17
2019-05-12T03:30:38.060Z,98239.58
2019-05-12T03:33:09.636Z,98243.78
2019-05-12T03:35:43.077Z,98250.30
2019-05-12T03:38:07.096Z,98251.54
2019-05-12T03:40:38.353Z,98260.56
2019-05-12T03:43:06.072Z,98275.66
2019-05-12T03:45:35.863Z,98281.27
2019-05-12T03:48:05.835Z,98288.38
2019-05-12T03:50:35.788Z,98295.33
2019-05-12T03:53:10.018Z,98302.61
2019-05-12T03:55:41.498Z,98321.12
2019-05-12T03:58:06.375Z,98339.66
2019-05-12T04:00:36.065Z,98346.79
2019-05-12T04:03:05.740Z,98356.88
2019-05-12T04:05:35.748Z,98364.84
2019-05-12T04:08:06.589Z,98369.71
2019-05-12T04:10:36.499Z,98362.17
2019-05-12T04:13:05.853Z,98363.34
2019-05-12T04:15:35.577Z,98363.78
2019-05-12T04:18:06.146Z,98370.30
2019-05-12T04:20:36.019Z,98375.29
2019-05-12T04:23:06.462Z,98392.14
2019-05-12T04:25:51.009Z,98389.50
2019-05-12T04:28:05.868Z,98388.81
2019-05-12T04:30:35.607Z,98394.16
2019-05-12T04:33:05.970Z,98394.27
2019-05-12T04:35:35.552Z,98395.09
2019-05-12T04:38:05.720Z,98393.58
2019-05-12T04:40:35.867Z,98388.61
2019-05-12T04:43:06.686Z,98391.45
2019-05-12T04:45:35.710Z,98392.50
2019-05-12T04:48:06.366Z,98397.48
2019-05-12T04:50:36.030Z,98403.48
2019-05-12T04:53:06.795Z,98415.75
2019-05-12T04:55:36.359Z,98418.02
2019-05-12T04:58:05.689Z,98424.53
2019-05-12T05:00:35.385Z,98420.11
2019-05-12T05:03:05.961Z,98423.67
2019-05-12T05:05:36.073Z,98419.73
2019-05-12T05:08:05.392Z,98419.41
2019-05-12T05:10:34.865Z,98419.41
2019-05-12T05:13:05.055Z,98418.53
2019-05-12T05:15:34.980Z,98426.33
2019-05-12T05:18:06.668Z,98426.34
2019-05-12T05:20:35.377Z,98427.27
2019-05-12T05:23:04.738Z,98425.63
2019-05-12T05:25:35.382Z,98428.68
2019-05-12T05:28:05.490Z,98428.09
2019-05-12T05:30:34.486Z,98437.16
2019-05-12T05:33:04.585Z,98439.35
2019-05-12T05:35:39.381Z,98441.31
2019-05-12T05:38:04.709Z,98445.84
2019-05-12T05:40:35.860Z,98452.44
2019-05-12T05:43:12.174Z,98452.92
2019-05-12T05:45:35.063Z,98455.22
2019-05-12T05:48:09.719Z,98466.23
2019-05-12T05:50:35.356Z,98466.53
2019-05-12T05:53:04.286Z,98464.64
2019-05-12T05:55:34.327Z,98470.85
2019-05-12T05:58:07.924Z,98475.33
2019-05-12T06:00:35.252Z,98483.04
2019-05-12T06:03:05.326Z,98486.48
2019-05-12T06:05:35.430Z,98488.75
2019-05-12T06:08:09.714Z,98488.75
2019-05-12T06:10:40.027Z,98485.20
2019-05-12T06:13:05.573Z,98490.77
2019-05-12T06:15:38.840Z,98493.80
2019-05-12T06:18:05.261Z,98499.63
2019-05-12T06:20:37.722Z,98502.58
2019-05-12T06:23:05.014Z,98511.54
2019-05-12T06:25:45.561Z,98518.05
2019-05-12T06:28:08.553Z,98514.57
2019-05-12T06:30:43.924Z,98526.02
2019-05-12T06:33:05.724Z,98528.48
2019-05-12T06:35:37.609Z,98534.50
2019-05-12T06:38:05.434Z,98542.63
2019-05-12T06:40:40.247Z,98543.16
2019-05-12T06:43:04.907Z,98551.73
2019-05-12T06:45:42.087Z,98556.56
2019-05-12T06:48:05.119Z,98562.19
2019-05-12T06:50:39.052Z,98560.34
2019-05-12T06:53:05.497Z,98565.04
2019-05-12T06:55:38.988Z,98571.40
2019-05-12T06:58:05.253Z,98572.34
2019-05-12T07:00:35.300Z,98572.34
2019-05-12T07:03:05.571Z,98574.41
2019-05-12T07:05:38.208Z,98576.73
2019-05-12T07:08:05.316Z,98569.20
2019-05-12T07:10:39.405Z,98581.66
2019-05-12T07:13:06.055Z,98585.98
2019-05-12T07:15:40.152Z,98590.39
2019-05-12T07:18:07.336Z,98587.58
2019-05-12T07:20:39.033Z,98585.05
2019-05-12T07:23:06.080Z,98593.92
2019-05-12T07:25:36.780Z,98595.56
2019-05-12T07:28:07.811Z,98601.30
2019-05-12T07:30:35.515Z,98599.44
2019-05-12T07:33:04.604Z,98602.97
2019-05-12T07:35:34.335Z,98611.84
2019-05-12T07:38:04.755Z,98610.65
2019-05-12T07:40:36.744Z,98601.83
2019-05-12T07:43:04.584Z,98609.02
2019-05-12T07:45:33.982Z,98607.44
2019-05-12T07:48:07.078Z,98617.92
2019-05-12T07:50:34.486Z,98612.10
2019-05-12T07:53:04.137Z,98617.70
2019-05-12T07:55:34.156Z,98619.14
2019-05-12T07:58:10.353Z,98627.30
2019-05-12T08:00:34.115Z,98629.97
2019-05-12T08:03:08.175Z,98632.28
2019-05-12T08:05:33.818Z,98636.14
2019-05-12T08:08:07.123Z,98632.97
2019-05-12T08:10:34.208Z,98641.39
2019-05-12T08:13:04.344Z,98646.66
2019-05-12T08:15:34.108Z,98647.97
2019-05-12T08:18:07.445Z,98652.20
2019-05-12T08:20:34.332Z,98663.08
2019-05-12T08:23:05.880Z,98670.71
2019-05-12T08:25:34.863Z,98675.39
2019-05-12T08:28:15.213Z,98685.95
2019-05-12T08:30:45.801Z,98688.75
2019-05-12T08:33:09.919Z,98695.59
2019-05-12T08:35:38.614Z,98701.67
2019-05-12T08:38:09.572Z,98703.26
2019-05-12T08:40:48.749Z,98705.55
2019-05-12T08:43:10.519Z,98712.16
2019-05-12T08:45:38.506Z,98724.10
2019-05-12T08:48:10.234Z,98727.36
2019-05-12T08:50:37.299Z,98729.68
2019-05-12T08:53:05.814Z,98739.78
2019-05-12T08:55:35.911Z,98748.24
2019-05-12T08:58:05.076Z,98753.01
2019-05-12T09:00:44.838Z,98761.30
2019-05-12T09:03:09.497Z,98762.16
2019-05-12T09:05:39.172Z,98762.28
2019-05-12T09:08:07.814Z,98765.35
2019-05-12T09:10:36.295Z,98769.89
2019-05-12T09:13:05.124Z,98767.45
2019-05-12T09:15:34.528Z,98777.52
2019-05-12T09:18:04.771Z,98795.98
2019-05-12T09:20:34.098Z,98799.79
2019-05-12T09:23:04.665Z,98807.41
2019-05-12T09:25:34.061Z,98810.38
2019-05-12T09:28:03.812Z,98818.84
2019-05-12T09:30:33.649Z,98823.47
2019-05-12T09:33:04.035Z,98825.66
2019-05-12T09:35:35.053Z,98829.05
2019-05-12T09:38:05.995Z,98832.52
2019-05-12T09:40:35.639Z,98833.31
2019-05-12T09:43:08.751Z,98838.30
2019-05-12T09:45:40.734Z,98850.02
2019-05-12T09:48:09.057Z,98847.30
2019-05-12T09:50:35.856Z,98855.38
2019-05-12T09:53:07.051Z,98866.77
2019-05-12T09:55:35.334Z,98869.91
2019-05-12T09:58:04.254Z,98874.18
2019-05-12T10:00:36.022Z,98874.50
2019-05-12T10:03:04.784Z,98874.50
2019-05-12T10:05:39.289Z,98882.94
2019-05-12T10:08:04.936Z,98886.35
2019-05-12T10:10:35.511Z,98882.70
2019-05-12T10:13:04.702Z,98884.19
2019-05-12T10:15:33.711Z,98894.30
2019-05-12T10:18:06.595Z,98875.77
2019-05-12T10:20:35.264Z,98890.60
2019-05-12T10:23:04.405Z,98896.08
2019-05-12T10:25:33.894Z,98902.69
2019-05-12T10:28:11.160Z,98907.76
2019-05-12T10:30:34.267Z,98908.00
2019-05-12T10:33:03.743Z,98911.52
2019-05-12T10:35:34.989Z,98909.98
2019-05-12T10:38:08.546Z,98914.29
2019-05-12T10:40:33.789Z,98914.27
2019-05-12T10:43:04.497Z,98918.20
2019-05-12T10:45:33.892Z,98918.20
2019-05-12T10:48:03.618Z,98920.25
2019-05-12T10:50:34.181Z,98922.66
2019-05-12T10:53:04.668Z,98914.05
2019-05-12T10:55:33.829Z,98919.45
2019-05-12T10:58:06.549Z,98927.42
2019-05-12T11:00:34.046Z,98928.45
2019-05-12T11:03:10.356Z,98934.70
2019-05-12T11:05:33.886Z,98933.92
2019-05-12T11:08:06.434Z,98936.30
2019-05-12T11:10:33.211Z,98934.11
2019-05-12T11:13:07.532Z,98941.21
2019-05-12T11:15:33.977Z,98947.33
2019-05-12T11:18:03.803Z,98961.77
2019-05-12T11:20:34.415Z,98957.45
2019-05-12T11:23:03.565Z,98976.60
2019-05-12T11:25:34.007Z,98967.25
2019-05-12T11:28:03.662Z,98972.72
2019-05-12T11:30:34.633Z,98976.48
2019-05-12T11:33:04.331Z,98974.59
2019-05-12T11:35:34.025Z,98976.33
2019-05-12T11:38:04.463Z,98980.05
2019-05-12T11:40:34.745Z,98989.47
2019-05-12T11:43:04.093Z,98989.47
2019-05-12T11:45:33.849Z,98988.60
2019-05-12T11:48:05.784Z,98999.90
2019-05-12T11:50:33.169Z,99005.39
2019-05-12T11:53:03.979Z,98999.89
2019-05-12T11:55:34.198Z,99005.52
2019-05-12T11:58:06.778Z,99006.23
2019-05-12T12:00:36.761Z,99010.48
2019-05-12T12:03:12.813Z,99021.41
2019-05-12T12:05:38.268Z,99014.31
2019-05-12T12:08:05.837Z,99022.08
2019-05-12T12:10:38.337Z,99027.33
2019-05-12T12:13:04.814Z,99028.45
2019-05-12T12:15:34.510Z,99034.06
2019-05-12T12:18:12.780Z,99040.72
2019-05-12T12:20:33.997Z,99040.89
2019-05-12T12:23:06.584Z,99052.67
2019-05-12T12:25:34.119Z,99063.41
2019-05-12T12:28:04.285Z,99059.34
2019-05-12T12:30:33.876Z,99061.44
2019-05-12T12:33:04.028Z,99071.78
2019-05-12T12:35:34.617Z,99069.47
2019-05-12T12:38:03.791Z,99081.53
2019-05-12T12:40:32.495Z,99083.13
2019-05-12T12:43:03.419Z,99093.47
2019-05-12T12:45:36.638Z,99087.08
2019-05-12T12:48:03.257Z,99091.75
2019-05-12T12:50:34.203Z,99097.45
2019-05-12T12:53:02.596Z,99094.75
2019-05-12T12:55:31.109Z,99090.86
2019-05-12T12:57:59.599Z,99097.14
2019-05-12T13:00:32.037Z,99096.74
2019-05-12T13:02:58.509Z,99100.60
2019-05-12T13:05:27.147Z,99108.45
2019-05-12T13:07:55.660Z,99109.84
2019-05-12T13:10:24.771Z,99110.16
2019-05-12T13:12:58.686Z,99116.81
2019-05-12T13:15:23.812Z,99124.31
2019-05-12T13:17:52.335Z,99122.30
2019-05-12T13:20:23.644Z,99126.23
2019-05-12T13:22:53.499Z,99120.22
2019-05-12T13:25:21.749Z,99122.87
2019-05-12T13:27:50.250Z,99131.81
2019-05-12T13:30:21.298Z,99132.86
2019-05-12T13:32:49.184Z,99124.95
2019-05-12T13:35:20.079Z,99132.58
2019-05-12T13:37:50.429Z,99134.88
2019-05-12T13:40:18.492Z,99139.13
2019-05-12T13:42:46.970Z,99139.50
2019-05-12T13:45:16.464Z,99139.69
2019-05-12T13:47:45.100Z,99139.78
2019-05-12T13:50:21.810Z,99140.39
2019-05-12T13:52:43.956Z,99142.52
2019-05-12T13:55:13.453Z,99146.95
2019-05-12T13:57:46.716Z,99145.50
2019-05-12T14:00:14.070Z,99145.20
2019-05-12T14:02:44.158Z,99143.50
2019-05-12T14:05:14.997Z,99146.90
2019-05-12T14:07:43.964Z,99151.73
2019-05-12T14:10:14.027Z,99149.33
2019-05-12T14:12:43.894Z,99144.30
2019-05-12T14:15:14.137Z,99149.77
2019-05-12T14:17:43.659Z,99143.06
2019-05-12T14:20:20.009Z,99144.91
2019-05-12T14:22:45.030Z,99152.97
2019-05-12T14:25:15.225Z,99154.05
2019-05-12T14:27:44.456Z,99152.21
2019-05-12T14:30:14.547Z,99155.73
2019-05-12T14:32:44.024Z,99169.91
2019-05-12T14:35:13.423Z,99169.92
2019-05-12T14:37:46.039Z,99178.37
2019-05-12T14:40:13.337Z,99182.50
2019-05-12T14:42:43.967Z,99194.29
2019-05-12T14:45:13.985Z,99195.67
2019-05-12T14:47:43.700Z,99199.89
2019-05-12T14:50:14.138Z,99204.17
2019-05-12T14:52:43.953Z,99210.63
2019-05-12T14:55:13.961Z,99215.41
2019-05-12T14:57:42.528Z,99215.85
2019-05-12T15:00:17.308Z,99226.44
2019-05-12T15:02:43.734Z,99230.52
2019-05-12T15:05:14.109Z,99228.16
2019-05-12T15:07:50.989Z,99238.81
2019-05-12T15:10:14.296Z,99237.30
2019-05-12T15:12:44.227Z,99242.98
2019-05-12T15:15:18.408Z,99245.61
2019-05-12T15:17:44.497Z,99253.30
2019-05-12T15:20:13.882Z,99257.41
2019-05-12T15:22:51.242Z,99270.41
2019-05-12T15:25:14.430Z,99261.10
2019-05-12T15:27:46.035Z,99268.79
2019-05-12T15:30:22.386Z,99265.61
2019-05-12T15:32:44.385Z,99277.22
2019-05-12T15:35:13.700Z,99272.38
2019-05-12T15:37:43.530Z,99259.41
2019-05-12T15:40:14.483Z,99274.05
2019-05-12T15:42:45.310Z,99278.22
2019-05-12T15:45:16.392Z,99283.02
2019-05-12T15:47:44.921Z,99289.23
2019-05-12T15:54:11.079Z,99281.69
2019-05-12T15:56:35.569Z,99289.64
2019-05-12T15:59:04.721Z,99292.37
2019-05-12T16:01:33.572Z,99290.71
2019-05-12T16:04:03.653Z,99286.38
2019-05-12T16:06:32.352Z,99292.02
2019-05-12T16:09:00.854Z,99296.14
2019-05-12T16:11:29.360Z,99291.92
2019-05-12T16:13:59.374Z,99296.34
2019-05-12T16:16:28.127Z,99305.23
2019-05-12T16:18:56.643Z,99308.58
2019-05-12T16:21:25.129Z,99310.42
2019-05-12T16:23:56.712Z,99317.20
2019-05-12T16:26:24.280Z,99309.18
2019-05-12T16:28:53.998Z,99324.95
2019-05-12T16:31:23.715Z,99326.30
2019-05-12T16:34:00.869Z,99319.98
2019-05-12T16:36:22.486Z,99328.61
2019-05-12T16:38:58.085Z,99334.14
2019-05-12T16:41:26.394Z,99335.31
2019-05-12T16:43:53.671Z,99335.31
2019-05-12T16:46:23.472Z,99337.72
2019-05-12T16:48:56.655Z,99338.05
2019-05-12T16:51:23.877Z,99344.66
2019-05-12T16:53:53.976Z,99343.70
2019-05-12T16:56:27.883Z,99357.01
2019-05-12T16:58:54.284Z,99356.16
2019-05-12T17:01:26.094Z,99361.14
2019-05-12T17:03:54.640Z,99362.65
2019-05-12T17:06:23.449Z,99356.66
2019-05-12T17:08:54.242Z,99361.08
2019-05-12T17:11:27.968Z,99367.34
2019-05-12T17:13:56.747Z,99373.77
2019-05-12T17:16:22.589Z,99378.13
2019-05-12T17:18:53.250Z,99387.02
2019-05-12T17:21:21.320Z,99393.00
2019-05-12T17:23:49.909Z,99393.69
2019-05-12T17:26:18.398Z,99399.13
2019-05-12T17:28:46.888Z,99396.84
2019-05-12T17:31:15.410Z,99402.97
2019-05-12T17:33:43.902Z,99404.11
2019-05-12T17:36:17.541Z,99408.05
2019-05-12T17:38:44.069Z,99411.00
2019-05-12T17:41:15.544Z,99411.84
2019-05-12T17:43:51.922Z,99417.36
2019-05-12T17:46:17.916Z,99415.37
2019-05-12T17:48:44.886Z,99424.40
2019-05-12T17:51:13.965Z,99428.11
2019-05-12T17:53:43.431Z,99427.99
2019-05-12T17:56:13.977Z,99436.03
2019-05-12T17:58:46.941Z,99441.94
2019-05-12T18:01:14.340Z,99440.98
2019-05-12T18:03:48.791Z,99445.17
2019-05-12T18:06:14.168Z,99444.73
2019-05-12T18:08:44.268Z,99444.98
2019-05-12T18:11:15.853Z,99448.53
2019-05-12T18:13:43.767Z,99449.31
2019-05-12T18:16:20.684Z,99448.70
2019-05-12T18:18:43.528Z,99457.50
2019-05-12T18:21:21.173Z,99456.48
2019-05-12T18:23:43.665Z,99455.20
2019-05-12T18:26:16.096Z,99457.13
2019-05-12T18:28:44.262Z,99463.78
2019-05-12T18:31:13.802Z,99464.95
2019-05-12T18:33:50.951Z,99453.97
2019-05-12T18:36:14.361Z,99466.20
2019-05-12T18:38:44.656Z,99472.00
2019-05-12T18:41:14.001Z,99476.25
2019-05-12T18:43:43.497Z,99473.89
2019-05-12T18:46:14.065Z,99477.08
2019-05-12T18:48:42.429Z,99480.33
2019-05-12T18:51:12.228Z,99490.03
2019-05-12T18:53:43.834Z,99495.67
2019-05-12T18:56:19.307Z,99500.88
2019-05-12T18:58:44.490Z,99508.06
2019-05-12T19:01:14.119Z,99510.99
2019-05-12T19:03:49.754Z,99513.01
2019-05-12T19:06:14.077Z,99517.79
2019-05-12T19:08:42.855Z,99518.95
2019-05-12T19:11:19.950Z,99525.21
2019-05-12T19:13:45.272Z,99519.89
2019-05-12T19:16:14.217Z,99527.19
2019-05-12T19:18:42.231Z,99533.77
2019-05-12T19:21:16.735Z,99532.10
2019-05-12T19:23:40.906Z,99540.79
2019-05-12T19:26:09.423Z,99531.25
2019-05-12T19:28:44.282Z,99534.44
2019-05-12T19:31:10.257Z,99530.41
2019-05-12T19:33:44.025Z,99536.09
2019-05-12T19:36:10.224Z,99541.78
2019-05-12T19:38:38.715Z,99538.42
2019-05-12T19:41:07.283Z,99539.78
2019-05-12T19:43:39.279Z,99534.00
2019-05-12T19:46:06.025Z,99540.12
2019-05-12T19:48:43.082Z,99532.89
2019-05-12T19:51:19.991Z,99539.31
2019-05-12T19:53:35.365Z,99542.23
2019-05-12T19:56:04.782Z,99542.26
2019-05-12T19:58:34.047Z,99552.02
2019-05-12T20:01:03.654Z,99549.53
2019-05-12T20:03:33.521Z,99547.88
2019-05-12T20:06:02.263Z,99550.83
2019-05-12T20:08:30.790Z,99554.11
2019-05-12T20:10:59.283Z,99560.77
2019-05-12T20:13:29.732Z,99560.23
2019-05-12T20:15:58.507Z,99562.30
2019-05-12T20:18:27.027Z,99565.94
2019-05-12T20:20:55.582Z,99566.41
2019-05-12T20:23:24.674Z,99556.20
2019-05-12T20:25:53.563Z,99559.04
2019-05-12T20:28:24.269Z,99548.81
2019-05-12T20:31:01.005Z,99552.77
2019-05-12T20:33:24.074Z,99557.31
2019-05-12T20:35:54.736Z,99549.83
2019-05-12T20:38:25.428Z,99546.45
2019-05-12T20:40:54.028Z,99540.58
2019-05-12T20:43:24.092Z,99538.64
2019-05-12T20:45:52.972Z,99544.09
2019-05-12T20:48:26.374Z,99534.73
2019-05-12T20:50:51.699Z,99540.38
2019-05-12T20:53:24.871Z,99541.53
2019-05-12T20:55:50.409Z,99535.20
2019-05-12T20:58:18.895Z,99542.47
2019-05-12T21:00:50.058Z,99533.41
2019-05-12T21:03:18.579Z,99536.02
2019-05-12T21:05:50.571Z,99530.49
2019-05-12T21:08:17.490Z,99531.02
2019-05-12T21:10:46.169Z,99530.00
2019-05-12T21:13:14.878Z,99527.02
2019-05-12T21:15:45.680Z,99529.48
2019-05-12T21:18:14.737Z,99537.84
2019-05-12T21:20:46.424Z,99531.39
2019-05-12T21:23:13.677Z,99538.42
2019-05-12T21:25:43.908Z,99539.36
2019-05-12T21:28:14.642Z,99540.88
2019-05-12T21:30:48.261Z,99546.84
2019-05-12T21:33:14.722Z,99548.22
2019-05-12T21:35:45.967Z,99551.95
2019-05-12T21:38:13.530Z,99552.72
2019-05-12T21:40:44.071Z,99557.67
2019-05-12T21:43:13.541Z,99556.96
2019-05-12T21:45:42.230Z,99562.95
2019-05-12T21:48:15.025Z,99570.75
2019-05-12T21:50:41.014Z,99572.58
2019-05-12T21:53:10.062Z,99579.38
2019-05-12T21:55:39.811Z,99581.48
2019-05-12T21:58:12.135Z,99582.00
2019-05-12T22:00:45.210Z,99593.55
2019-05-12T22:03:15.616Z,99590.63
2019-05-12T22:05:51.977Z,99589.31
2019-05-12T22:08:20.810Z,99586.62
2019-05-12T22:10:46.118Z,99582.02
2019-05-12T22:13:17.954Z,99580.63
2019-05-12T22:15:44.851Z,99578.83
2019-05-12T22:18:13.359Z,99589.49
2019-05-12T22:20:46.097Z,99584.31
2019-05-12T22:23:14.976Z,99584.79
2019-05-12T22:25:43.587Z,99583.54
2019-05-12T22:28:13.516Z,99589.81
2019-05-12T22:30:43.787Z,99587.17
2019-05-12T22:33:14.572Z,99595.81
2019-05-12T22:35:44.300Z,99596.82
2019-05-12T22:38:16.629Z,99599.67
2019-05-12T22:40:43.255Z,99601.43
2019-05-12T22:43:14.048Z,99600.02
2019-05-12T22:45:49.169Z,99600.52
2019-05-12T22:48:12.194Z,99600.17
2019-05-12T22:50:40.685Z,99593.02
2019-05-12T22:53:09.194Z,99599.39
2019-05-12T22:55:37.676Z,99597.05
2019-05-12T22:58:10.835Z,99593.92
2019-05-12T23:00:36.738Z,99604.17
2019-05-12T23:03:11.465Z,99608.11
2019-05-12T23:05:35.513Z,99613.80
2019-05-12T23:08:08.348Z,99611.68
2019-05-12T23:10:35.215Z,99609.77
2019-05-12T23:13:05.107Z,99615.88
2019-05-12T23:15:38.795Z,99605.94
2019-05-12T23:18:05.038Z,99617.32
2019-05-12T23:20:35.651Z,99616.69
2019-05-12T23:23:08.646Z,99619.16
2019-05-12T23:25:34.070Z,99624.16
2019-05-12T23:28:08.383Z,99617.30
2019-05-12T23:30:32.896Z,99620.87
2019-05-12T23:33:03.897Z,99618.41
2019-05-12T23:35:37.306Z,99618.70
2019-05-12T23:38:04.175Z,99628.33
2019-05-12T23:40:34.286Z,99624.67
2019-05-12T23:43:04.097Z,99628.50
2019-05-12T23:45:33.894Z,99624.33
2019-05-12T23:48:03.769Z,99628.06
2019-05-12T23:50:32.600Z,99627.05
2019-05-12T23:53:03.476Z,99630.48
2019-05-12T23:55:34.688Z,99627.87
2019-05-12T23:58:04.328Z,99630.74
